sensor_id;sensor_type;location;lat;lon;timestamp;P1;durP1;ratioP1;P2;durP2;ratioP2
58470;SDS011;44258;51.288;12.068;2022-08-18T00:00:43;7.97;;;3.45;;
58470;SDS011;44258;51.288;12.068;2022-08-18T00:03:10;8.10;;;3.47;;
58470;SDS011;44258;51.288;12.068;2022-08-18T00:05:37;6.90;;;3.38;;
58470;SDS011;44258;51.288;12.068;2022-08-18T00:08:03;7.20;;;3.30;;
58470;SDS011;44258;51.288;12.068;2022-08-18T00:10:32;8.80;;;3.58;;
58470;SDS011;44258;51.288;12.068;2022-08-18T00:12:58;6.35;;;3.10;;
58470;SDS011;44258;51.288;12.068;2022-08-18T00:15:25;7.43;;;3.45;;
58470;SDS011;44258;51.288;12.068;2022-08-18T00:17:51;10.65;;;4.05;;
58470;SDS011;44258;51.288;12.068;2022-08-18T00:20:18;7.60;;;3.75;;
58470;SDS011;44258;51.288;12.068;2022-08-18T00:22:46;6.93;;;3.25;;
58470;SDS011;44258;51.288;12.068;2022-08-18T00:25:14;7.88;;;2.92;;
58470;SDS011;44258;51.288;12.068;2022-08-18T00:27:43;7.20;;;3.30;;
58470;SDS011;44258;51.288;12.068;2022-08-18T00:30:10;8.10;;;3.63;;
58470;SDS011;44258;51.288;12.068;2022-08-18T00:32:39;6.15;;;3.28;;
58470;SDS011;44258;51.288;12.068;2022-08-18T00:35:08;8.10;;;3.60;;
58470;SDS011;44258;51.288;12.068;2022-08-18T00:37:38;7.15;;;3.47;;
58470;SDS011;44258;51.288;12.068;2022-08-18T00:40:05;8.10;;;3.65;;
58470;SDS011;44258;51.288;12.068;2022-08-18T00:42:36;8.40;;;3.47;;
58470;SDS011;44258;51.288;12.068;2022-08-18T00:45:12;6.60;;;3.35;;
58470;SDS011;44258;51.288;12.068;2022-08-18T00:47:40;7.90;;;3.50;;
58470;SDS011;44258;51.288;12.068;2022-08-18T00:50:07;9.68;;;3.67;;
58470;SDS011;44258;51.288;12.068;2022-08-18T00:52:34;7.43;;;3.63;;
58470;SDS011;44258;51.288;12.068;2022-08-18T00:55:02;6.95;;;3.60;;
58470;SDS011;44258;51.288;12.068;2022-08-18T00:57:29;8.68;;;3.65;;
58470;SDS011;44258;51.288;12.068;2022-08-18T00:59:56;8.73;;;3.80;;
58470;SDS011;44258;51.288;12.068;2022-08-18T01:02:35;7.47;;;4.00;;
58470;SDS011;44258;51.288;12.068;2022-08-18T01:05:06;7.70;;;3.65;;
58470;SDS011;44258;51.288;12.068;2022-08-18T01:07:38;8.13;;;3.45;;
58470;SDS011;44258;51.288;12.068;2022-08-18T01:10:08;8.13;;;3.53;;
58470;SDS011;44258;51.288;12.068;2022-08-18T01:12:38;7.65;;;3.70;;
58470;SDS011;44258;51.288;12.068;2022-08-18T01:15:05;7.13;;;3.35;;
58470;SDS011;44258;51.288;12.068;2022-08-18T01:17:34;8.18;;;3.67;;
58470;SDS011;44258;51.288;12.068;2022-08-18T01:20:20;7.47;;;3.60;;
58470;SDS011;44258;51.288;12.068;2022-08-18T01:23:23;7.63;;;3.28;;
58470;SDS011;44258;51.288;12.068;2022-08-18T01:25:50;7.65;;;3.38;;
58470;SDS011;44258;51.288;12.068;2022-08-18T01:28:29;7.15;;;3.30;;
58470;SDS011;44258;51.288;12.068;2022-08-18T01:30:57;7.28;;;3.63;;
58470;SDS011;44258;51.288;12.068;2022-08-18T01:33:25;8.15;;;3.90;;
58470;SDS011;44258;51.288;12.068;2022-08-18T01:35:56;12.05;;;3.78;;
58470;SDS011;44258;51.288;12.068;2022-08-18T01:38:26;8.00;;;3.70;;
58470;SDS011;44258;51.288;12.068;2022-08-18T01:40:52;7.13;;;3.40;;
58470;SDS011;44258;51.288;12.068;2022-08-18T01:43:19;7.25;;;3.33;;
58470;SDS011;44258;51.288;12.068;2022-08-18T01:45:46;7.88;;;3.80;;
58470;SDS011;44258;51.288;12.068;2022-08-18T01:48:12;7.88;;;3.53;;
58470;SDS011;44258;51.288;12.068;2022-08-18T01:50:39;7.95;;;3.80;;
58470;SDS011;44258;51.288;12.068;2022-08-18T01:53:09;8.75;;;3.58;;
58470;SDS011;44258;51.288;12.068;2022-08-18T01:55:39;7.68;;;3.40;;
58470;SDS011;44258;51.288;12.068;2022-08-18T01:58:09;7.70;;;3.70;;
58470;SDS011;44258;51.288;12.068;2022-08-18T02:00:36;9.13;;;3.92;;
58470;SDS011;44258;51.288;12.068;2022-08-18T02:03:05;7.10;;;3.53;;
58470;SDS011;44258;51.288;12.068;2022-08-18T02:05:39;8.50;;;3.60;;
58470;SDS011;44258;51.288;12.068;2022-08-18T02:08:08;7.68;;;3.47;;
58470;SDS011;44258;51.288;12.068;2022-08-18T02:10:37;9.13;;;3.75;;
58470;SDS011;44258;51.288;12.068;2022-08-18T02:13:04;10.07;;;3.90;;
58470;SDS011;44258;51.288;12.068;2022-08-18T02:15:31;7.57;;;3.60;;
58470;SDS011;44258;51.288;12.068;2022-08-18T02:17:57;9.73;;;3.70;;
58470;SDS011;44258;51.288;12.068;2022-08-18T02:20:24;7.43;;;3.53;;
58470;SDS011;44258;51.288;12.068;2022-08-18T02:22:50;7.30;;;3.47;;
58470;SDS011;44258;51.288;12.068;2022-08-18T02:25:17;7.43;;;3.63;;
58470;SDS011;44258;51.288;12.068;2022-08-18T02:27:46;9.43;;;3.92;;
58470;SDS011;44258;51.288;12.068;2022-08-18T02:30:13;8.73;;;3.58;;
58470;SDS011;44258;51.288;12.068;2022-08-18T02:32:41;7.95;;;3.35;;
58470;SDS011;44258;51.288;12.068;2022-08-18T02:35:08;8.35;;;3.58;;
58470;SDS011;44258;51.288;12.068;2022-08-18T02:37:36;7.75;;;3.70;;
58470;SDS011;44258;51.288;12.068;2022-08-18T02:40:03;8.13;;;3.70;;
58470;SDS011;44258;51.288;12.068;2022-08-18T02:42:30;8.20;;;3.90;;
58470;SDS011;44258;51.288;12.068;2022-08-18T02:44:58;7.13;;;3.50;;
58470;SDS011;44258;51.288;12.068;2022-08-18T02:47:24;7.72;;;3.42;;
58470;SDS011;44258;51.288;12.068;2022-08-18T02:49:51;7.38;;;3.58;;
58470;SDS011;44258;51.288;12.068;2022-08-18T02:52:17;7.63;;;3.55;;
58470;SDS011;44258;51.288;12.068;2022-08-18T02:54:44;7.30;;;3.55;;
58470;SDS011;44258;51.288;12.068;2022-08-18T02:57:11;7.63;;;3.45;;
58470;SDS011;44258;51.288;12.068;2022-08-18T02:59:38;9.05;;;4.03;;
58470;SDS011;44258;51.288;12.068;2022-08-18T03:02:07;8.35;;;3.80;;
58470;SDS011;44258;51.288;12.068;2022-08-18T03:04:35;6.45;;;3.47;;
58470;SDS011;44258;51.288;12.068;2022-08-18T03:07:02;7.65;;;3.33;;
58470;SDS011;44258;51.288;12.068;2022-08-18T03:09:31;9.60;;;3.17;;
58470;SDS011;44258;51.288;12.068;2022-08-18T03:11:58;6.97;;;3.28;;
58470;SDS011;44258;51.288;12.068;2022-08-18T03:14:25;7.22;;;3.70;;
58470;SDS011;44258;51.288;12.068;2022-08-18T03:16:51;9.65;;;3.42;;
58470;SDS011;44258;51.288;12.068;2022-08-18T03:19:19;8.73;;;3.78;;
58470;SDS011;44258;51.288;12.068;2022-08-18T03:21:46;9.13;;;3.45;;
58470;SDS011;44258;51.288;12.068;2022-08-18T03:24:13;6.68;;;3.28;;
58470;SDS011;44258;51.288;12.068;2022-08-18T03:26:41;8.55;;;3.60;;
58470;SDS011;44258;51.288;12.068;2022-08-18T03:29:09;8.07;;;3.65;;
58470;SDS011;44258;51.288;12.068;2022-08-18T03:31:36;7.75;;;3.47;;
58470;SDS011;44258;51.288;12.068;2022-08-18T03:34:04;7.05;;;3.47;;
58470;SDS011;44258;51.288;12.068;2022-08-18T03:36:34;9.32;;;3.58;;
58470;SDS011;44258;51.288;12.068;2022-08-18T03:39:02;7.68;;;3.70;;
58470;SDS011;44258;51.288;12.068;2022-08-18T03:41:30;8.20;;;3.85;;
58470;SDS011;44258;51.288;12.068;2022-08-18T03:43:56;8.82;;;3.75;;
58470;SDS011;44258;51.288;12.068;2022-08-18T03:46:23;8.48;;;3.70;;
58470;SDS011;44258;51.288;12.068;2022-08-18T03:48:50;8.25;;;3.85;;
58470;SDS011;44258;51.288;12.068;2022-08-18T03:51:18;7.30;;;3.55;;
58470;SDS011;44258;51.288;12.068;2022-08-18T03:53:48;8.55;;;3.70;;
58470;SDS011;44258;51.288;12.068;2022-08-18T03:56:16;9.48;;;3.70;;
58470;SDS011;44258;51.288;12.068;2022-08-18T03:58:44;7.93;;;3.95;;
58470;SDS011;44258;51.288;12.068;2022-08-18T04:01:14;9.27;;;4.05;;
58470;SDS011;44258;51.288;12.068;2022-08-18T04:03:43;8.30;;;3.67;;
58470;SDS011;44258;51.288;12.068;2022-08-18T04:06:13;7.63;;;3.58;;
58470;SDS011;44258;51.288;12.068;2022-08-18T04:08:40;7.40;;;3.53;;
58470;SDS011;44258;51.288;12.068;2022-08-18T04:11:08;8.63;;;3.80;;
58470;SDS011;44258;51.288;12.068;2022-08-18T04:13:35;9.50;;;3.78;;
58470;SDS011;44258;51.288;12.068;2022-08-18T04:16:03;7.28;;;3.60;;
58470;SDS011;44258;51.288;12.068;2022-08-18T04:18:30;8.20;;;3.35;;
58470;SDS011;44258;51.288;12.068;2022-08-18T04:21:00;7.13;;;3.60;;
58470;SDS011;44258;51.288;12.068;2022-08-18T04:23:27;7.70;;;3.47;;
58470;SDS011;44258;51.288;12.068;2022-08-18T04:25:56;8.40;;;3.97;;
58470;SDS011;44258;51.288;12.068;2022-08-18T04:28:25;7.35;;;3.75;;
58470;SDS011;44258;51.288;12.068;2022-08-18T04:30:52;13.90;;;4.22;;
58470;SDS011;44258;51.288;12.068;2022-08-18T04:33:20;11.88;;;3.78;;
58470;SDS011;44258;51.288;12.068;2022-08-18T04:35:47;11.93;;;3.85;;
58470;SDS011;44258;51.288;12.068;2022-08-18T04:38:13;12.63;;;4.47;;
58470;SDS011;44258;51.288;12.068;2022-08-18T04:40:40;11.45;;;3.58;;
58470;SDS011;44258;51.288;12.068;2022-08-18T04:43:07;8.52;;;3.40;;
58470;SDS011;44258;51.288;12.068;2022-08-18T04:45:40;8.38;;;3.85;;
58470;SDS011;44258;51.288;12.068;2022-08-18T04:48:06;8.00;;;3.65;;
58470;SDS011;44258;51.288;12.068;2022-08-18T04:50:34;7.00;;;3.30;;
58470;SDS011;44258;51.288;12.068;2022-08-18T04:53:01;9.38;;;4.13;;
58470;SDS011;44258;51.288;12.068;2022-08-18T04:55:46;7.93;;;3.67;;
58470;SDS011;44258;51.288;12.068;2022-08-18T04:58:13;8.68;;;3.78;;
58470;SDS011;44258;51.288;12.068;2022-08-18T05:00:42;7.68;;;3.72;;
58470;SDS011;44258;51.288;12.068;2022-08-18T05:03:09;8.93;;;3.78;;
58470;SDS011;44258;51.288;12.068;2022-08-18T05:05:36;10.52;;;4.07;;
58470;SDS011;44258;51.288;12.068;2022-08-18T05:08:03;12.65;;;3.83;;
58470;SDS011;44258;51.288;12.068;2022-08-18T05:10:29;7.38;;;3.45;;
58470;SDS011;44258;51.288;12.068;2022-08-18T05:12:56;8.02;;;3.60;;
58470;SDS011;44258;51.288;12.068;2022-08-18T05:15:22;9.75;;;4.10;;
58470;SDS011;44258;51.288;12.068;2022-08-18T05:17:50;9.65;;;4.05;;
58470;SDS011;44258;51.288;12.068;2022-08-18T05:20:17;8.43;;;3.83;;
58470;SDS011;44258;51.288;12.068;2022-08-18T05:22:44;8.93;;;4.20;;
58470;SDS011;44258;51.288;12.068;2022-08-18T05:25:11;8.50;;;4.20;;
58470;SDS011;44258;51.288;12.068;2022-08-18T05:27:40;9.65;;;3.88;;
58470;SDS011;44258;51.288;12.068;2022-08-18T05:30:08;9.32;;;4.28;;
58470;SDS011;44258;51.288;12.068;2022-08-18T05:32:38;10.30;;;4.65;;
58470;SDS011;44258;51.288;12.068;2022-08-18T05:35:08;9.10;;;3.88;;
58470;SDS011;44258;51.288;12.068;2022-08-18T05:37:39;9.18;;;4.47;;
58470;SDS011;44258;51.288;12.068;2022-08-18T05:40:15;9.27;;;4.30;;
58470;SDS011;44258;51.288;12.068;2022-08-18T05:42:42;10.20;;;4.50;;
58470;SDS011;44258;51.288;12.068;2022-08-18T05:45:10;10.30;;;5.00;;
58470;SDS011;44258;51.288;12.068;2022-08-18T05:47:40;10.52;;;5.03;;
58470;SDS011;44258;51.288;12.068;2022-08-18T05:50:08;12.27;;;5.07;;
58470;SDS011;44258;51.288;12.068;2022-08-18T05:52:38;10.50;;;5.25;;
58470;SDS011;44258;51.288;12.068;2022-08-18T05:55:11;10.73;;;5.15;;
58470;SDS011;44258;51.288;12.068;2022-08-18T05:58:11;13.48;;;5.90;;
58470;SDS011;44258;51.288;12.068;2022-08-18T06:00:42;13.57;;;6.45;;
58470;SDS011;44258;51.288;12.068;2022-08-18T06:03:28;12.93;;;6.90;;
58470;SDS011;44258;51.288;12.068;2022-08-18T06:06:02;12.18;;;5.95;;
58470;SDS011;44258;51.288;12.068;2022-08-18T06:08:35;13.43;;;6.78;;
58470;SDS011;44258;51.288;12.068;2022-08-18T06:11:05;13.48;;;7.07;;
58470;SDS011;44258;51.288;12.068;2022-08-18T06:13:35;15.77;;;7.95;;
58470;SDS011;44258;51.288;12.068;2022-08-18T06:16:04;15.25;;;7.53;;
58470;SDS011;44258;51.288;12.068;2022-08-18T06:18:41;15.63;;;7.60;;
58470;SDS011;44258;51.288;12.068;2022-08-18T06:21:18;13.55;;;7.07;;
58470;SDS011;44258;51.288;12.068;2022-08-18T06:23:55;14.77;;;7.18;;
58470;SDS011;44258;51.288;12.068;2022-08-18T06:26:36;14.73;;;7.93;;
58470;SDS011;44258;51.288;12.068;2022-08-18T06:29:11;16.73;;;7.70;;
58470;SDS011;44258;51.288;12.068;2022-08-18T06:31:50;15.50;;;7.85;;
58470;SDS011;44258;51.288;12.068;2022-08-18T06:34:28;15.18;;;7.70;;
58470;SDS011;44258;51.288;12.068;2022-08-18T06:37:08;17.58;;;8.20;;
58470;SDS011;44258;51.288;12.068;2022-08-18T06:39:42;16.77;;;7.40;;
58470;SDS011;44258;51.288;12.068;2022-08-18T06:42:11;16.27;;;8.23;;
58470;SDS011;44258;51.288;12.068;2022-08-18T06:44:43;14.10;;;7.53;;
58470;SDS011;44258;51.288;12.068;2022-08-18T06:47:14;15.68;;;7.93;;
58470;SDS011;44258;51.288;12.068;2022-08-18T06:49:53;17.38;;;8.43;;
58470;SDS011;44258;51.288;12.068;2022-08-18T06:52:28;16.65;;;8.32;;
58470;SDS011;44258;51.288;12.068;2022-08-18T06:54:58;15.48;;;7.75;;
58470;SDS011;44258;51.288;12.068;2022-08-18T06:57:28;16.58;;;8.57;;
58470;SDS011;44258;51.288;12.068;2022-08-18T06:59:58;14.35;;;8.18;;
58470;SDS011;44258;51.288;12.068;2022-08-18T07:02:32;20.17;;;10.48;;
58470;SDS011;44258;51.288;12.068;2022-08-18T07:05:15;17.95;;;9.18;;
58470;SDS011;44258;51.288;12.068;2022-08-18T07:07:46;17.42;;;8.75;;
58470;SDS011;44258;51.288;12.068;2022-08-18T07:10:32;19.25;;;9.27;;
58470;SDS011;44258;51.288;12.068;2022-08-18T07:13:07;18.90;;;9.90;;
58470;SDS011;44258;51.288;12.068;2022-08-18T07:15:40;17.17;;;9.68;;
58470;SDS011;44258;51.288;12.068;2022-08-18T07:18:08;17.83;;;9.60;;
58470;SDS011;44258;51.288;12.068;2022-08-18T07:20:40;19.05;;;9.75;;
58470;SDS011;44258;51.288;12.068;2022-08-18T07:23:17;16.02;;;9.50;;
58470;SDS011;44258;51.288;12.068;2022-08-18T07:25:49;17.52;;;9.38;;
58470;SDS011;44258;51.288;12.068;2022-08-18T07:28:26;16.27;;;9.30;;
58470;SDS011;44258;51.288;12.068;2022-08-18T07:31:04;16.80;;;9.43;;
58470;SDS011;44258;51.288;12.068;2022-08-18T07:33:37;16.88;;;8.60;;
58470;SDS011;44258;51.288;12.068;2022-08-18T07:36:08;15.05;;;8.40;;
58470;SDS011;44258;51.288;12.068;2022-08-18T07:38:39;18.50;;;9.38;;
58470;SDS011;44258;51.288;12.068;2022-08-18T07:41:11;16.83;;;9.70;;
58470;SDS011;44258;51.288;12.068;2022-08-18T07:43:43;16.27;;;9.82;;
58470;SDS011;44258;51.288;12.068;2022-08-18T07:46:20;17.27;;;9.05;;
58470;SDS011;44258;51.288;12.068;2022-08-18T07:48:52;18.70;;;9.63;;
58470;SDS011;44258;51.288;12.068;2022-08-18T07:51:21;19.58;;;9.77;;
58470;SDS011;44258;51.288;12.068;2022-08-18T07:53:52;19.58;;;10.13;;
58470;SDS011;44258;51.288;12.068;2022-08-18T07:56:22;17.55;;;9.57;;
58470;SDS011;44258;51.288;12.068;2022-08-18T07:58:58;19.50;;;9.73;;
58470;SDS011;44258;51.288;12.068;2022-08-18T08:01:31;21.38;;;10.75;;
58470;SDS011;44258;51.288;12.068;2022-08-18T08:04:07;17.75;;;9.85;;
58470;SDS011;44258;51.288;12.068;2022-08-18T08:06:41;19.98;;;10.02;;
58470;SDS011;44258;51.288;12.068;2022-08-18T08:09:16;19.45;;;9.52;;
58470;SDS011;44258;51.288;12.068;2022-08-18T08:14:29;20.92;;;11.05;;
58470;SDS011;44258;51.288;12.068;2022-08-18T08:17:06;19.15;;;11.02;;
58470;SDS011;44258;51.288;12.068;2022-08-18T08:19:45;15.93;;;9.50;;
58470;SDS011;44258;51.288;12.068;2022-08-18T08:22:26;16.52;;;9.27;;
58470;SDS011;44258;51.288;12.068;2022-08-18T08:25:00;20.50;;;10.10;;
58470;SDS011;44258;51.288;12.068;2022-08-18T08:27:34;18.48;;;9.88;;
58470;SDS011;44258;51.288;12.068;2022-08-18T08:30:12;20.27;;;9.95;;
58470;SDS011;44258;51.288;12.068;2022-08-18T08:32:43;18.48;;;9.57;;
58470;SDS011;44258;51.288;12.068;2022-08-18T08:35:22;18.92;;;10.10;;
58470;SDS011;44258;51.288;12.068;2022-08-18T08:37:57;19.30;;;9.23;;
58470;SDS011;44258;51.288;12.068;2022-08-18T08:40:27;16.75;;;8.77;;
58470;SDS011;44258;51.288;12.068;2022-08-18T08:43:03;17.17;;;8.98;;
58470;SDS011;44258;51.288;12.068;2022-08-18T08:45:35;17.45;;;9.10;;
58470;SDS011;44258;51.288;12.068;2022-08-18T08:48:05;18.00;;;9.48;;
58470;SDS011;44258;51.288;12.068;2022-08-18T08:50:39;17.65;;;8.80;;
58470;SDS011;44258;51.288;12.068;2022-08-18T08:53:11;16.27;;;8.80;;
58470;SDS011;44258;51.288;12.068;2022-08-18T08:55:48;14.02;;;7.75;;
58470;SDS011;44258;51.288;12.068;2022-08-18T08:58:20;18.80;;;9.63;;
58470;SDS011;44258;51.288;12.068;2022-08-18T09:00:51;20.20;;;8.80;;
58470;SDS011;44258;51.288;12.068;2022-08-18T09:03:21;16.10;;;9.25;;
58470;SDS011;44258;51.288;12.068;2022-08-18T09:05:59;16.85;;;8.73;;
58470;SDS011;44258;51.288;12.068;2022-08-18T09:08:40;15.45;;;9.02;;
58470;SDS011;44258;51.288;12.068;2022-08-18T09:11:43;17.05;;;8.75;;
58470;SDS011;44258;51.288;12.068;2022-08-18T09:14:39;13.32;;;7.63;;
58470;SDS011;44258;51.288;12.068;2022-08-18T09:17:36;14.50;;;8.70;;
58470;SDS011;44258;51.288;12.068;2022-08-18T09:20:22;16.27;;;8.30;;
58470;SDS011;44258;51.288;12.068;2022-08-18T09:22:59;18.20;;;8.32;;
58470;SDS011;44258;51.288;12.068;2022-08-18T09:25:33;18.17;;;9.20;;
58470;SDS011;44258;51.288;12.068;2022-08-18T09:28:13;17.48;;;8.55;;
58470;SDS011;44258;51.288;12.068;2022-08-18T09:30:43;16.13;;;7.78;;
58470;SDS011;44258;51.288;12.068;2022-08-18T09:33:20;15.98;;;8.35;;
58470;SDS011;44258;51.288;12.068;2022-08-18T09:36:04;14.32;;;7.85;;
58470;SDS011;44258;51.288;12.068;2022-08-18T09:38:45;16.50;;;7.78;;
58470;SDS011;44258;51.288;12.068;2022-08-18T09:41:35;17.20;;;8.38;;
58470;SDS011;44258;51.288;12.068;2022-08-18T09:44:12;15.40;;;8.63;;
58470;SDS011;44258;51.288;12.068;2022-08-18T09:47:00;15.35;;;7.57;;
58470;SDS011;44258;51.288;12.068;2022-08-18T09:49:40;13.73;;;7.38;;
58470;SDS011;44258;51.288;12.068;2022-08-18T09:58:12;12.57;;;7.13;;
58470;SDS011;44258;51.288;12.068;2022-08-18T10:00:40;13.25;;;7.70;;
58470;SDS011;44258;51.288;12.068;2022-08-18T10:03:17;15.88;;;8.55;;
58470;SDS011;44258;51.288;12.068;2022-08-18T10:11:43;14.70;;;7.45;;
58470;SDS011;44258;51.288;12.068;2022-08-18T10:14:33;15.18;;;7.22;;
58470;SDS011;44258;51.288;12.068;2022-08-18T10:17:17;13.82;;;7.75;;
58470;SDS011;44258;51.288;12.068;2022-08-18T10:20:01;12.57;;;6.90;;
58470;SDS011;44258;51.288;12.068;2022-08-18T10:22:37;14.88;;;7.82;;
58470;SDS011;44258;51.288;12.068;2022-08-18T10:25:07;17.13;;;8.95;;
58470;SDS011;44258;51.288;12.068;2022-08-18T10:27:46;14.10;;;7.97;;
58470;SDS011;44258;51.288;12.068;2022-08-18T10:36:42;11.38;;;6.30;;
58470;SDS011;44258;51.288;12.068;2022-08-18T10:39:12;10.75;;;5.68;;
58470;SDS011;44258;51.288;12.068;2022-08-18T10:41:48;13.00;;;6.15;;
58470;SDS011;44258;51.288;12.068;2022-08-18T10:44:22;11.35;;;5.93;;
58470;SDS011;44258;51.288;12.068;2022-08-18T10:46:49;12.45;;;6.00;;
58470;SDS011;44258;51.288;12.068;2022-08-18T10:49:21;12.85;;;6.15;;
58470;SDS011;44258;51.288;12.068;2022-08-18T10:51:54;12.65;;;6.47;;
58470;SDS011;44258;51.288;12.068;2022-08-18T10:54:33;11.85;;;5.90;;
58470;SDS011;44258;51.288;12.068;2022-08-18T10:57:18;11.55;;;5.80;;
58470;SDS011;44258;51.288;12.068;2022-08-18T10:59:53;12.45;;;6.07;;
58470;SDS011;44258;51.288;12.068;2022-08-18T11:02:34;11.60;;;5.85;;
58470;SDS011;44258;51.288;12.068;2022-08-18T11:05:13;12.18;;;7.00;;
58470;SDS011;44258;51.288;12.068;2022-08-18T11:07:46;11.82;;;6.80;;
58470;SDS011;44258;51.288;12.068;2022-08-18T11:10:16;12.70;;;6.85;;
58470;SDS011;44258;51.288;12.068;2022-08-18T11:12:54;12.55;;;6.95;;
58470;SDS011;44258;51.288;12.068;2022-08-18T11:15:30;11.75;;;6.53;;
58470;SDS011;44258;51.288;12.068;2022-08-18T11:18:08;11.73;;;6.57;;
58470;SDS011;44258;51.288;12.068;2022-08-18T11:20:43;11.88;;;6.40;;
58470;SDS011;44258;51.288;12.068;2022-08-18T11:23:13;14.77;;;6.90;;
58470;SDS011;44258;51.288;12.068;2022-08-18T11:25:41;14.68;;;7.22;;
58470;SDS011;44258;51.288;12.068;2022-08-18T11:28:15;11.88;;;6.93;;
58470;SDS011;44258;51.288;12.068;2022-08-18T11:30:44;14.37;;;7.67;;
58470;SDS011;44258;51.288;12.068;2022-08-18T11:33:13;13.10;;;6.85;;
58470;SDS011;44258;51.288;12.068;2022-08-18T11:35:46;14.32;;;8.13;;
58470;SDS011;44258;51.288;12.068;2022-08-18T11:38:15;14.43;;;7.68;;
58470;SDS011;44258;51.288;12.068;2022-08-18T11:40:44;14.95;;;7.90;;
58470;SDS011;44258;51.288;12.068;2022-08-18T11:43:13;17.38;;;9.20;;
58470;SDS011;44258;51.288;12.068;2022-08-18T11:45:52;14.73;;;7.68;;
58470;SDS011;44258;51.288;12.068;2022-08-18T11:48:22;17.45;;;9.25;;
58470;SDS011;44258;51.288;12.068;2022-08-18T11:51:02;15.52;;;8.40;;
58470;SDS011;44258;51.288;12.068;2022-08-18T11:53:38;15.38;;;8.13;;
58470;SDS011;44258;51.288;12.068;2022-08-18T11:56:14;13.63;;;7.35;;
58470;SDS011;44258;51.288;12.068;2022-08-18T11:58:43;15.23;;;7.40;;
58470;SDS011;44258;51.288;12.068;2022-08-18T12:01:26;13.80;;;7.38;;
58470;SDS011;44258;51.288;12.068;2022-08-18T12:03:56;14.45;;;7.15;;
58470;SDS011;44258;51.288;12.068;2022-08-18T12:06:25;14.23;;;7.60;;
58470;SDS011;44258;51.288;12.068;2022-08-18T12:08:57;15.20;;;7.55;;
58470;SDS011;44258;51.288;12.068;2022-08-18T12:11:27;14.23;;;7.57;;
58470;SDS011;44258;51.288;12.068;2022-08-18T12:13:57;15.77;;;8.05;;
58470;SDS011;44258;51.288;12.068;2022-08-18T12:16:30;13.50;;;7.18;;
58470;SDS011;44258;51.288;12.068;2022-08-18T12:18:59;13.77;;;7.82;;
58470;SDS011;44258;51.288;12.068;2022-08-18T12:21:25;13.73;;;8.18;;
58470;SDS011;44258;51.288;12.068;2022-08-18T12:23:52;15.45;;;8.07;;
58470;SDS011;44258;51.288;12.068;2022-08-18T12:26:19;17.10;;;7.55;;
58470;SDS011;44258;51.288;12.068;2022-08-18T12:28:46;12.32;;;6.75;;
58470;SDS011;44258;51.288;12.068;2022-08-18T12:31:12;15.13;;;7.57;;
58470;SDS011;44258;51.288;12.068;2022-08-18T12:33:39;15.45;;;8.50;;
58470;SDS011;44258;51.288;12.068;2022-08-18T12:36:05;16.88;;;8.13;;
58470;SDS011;44258;51.288;12.068;2022-08-18T12:38:32;13.77;;;7.97;;
58470;SDS011;44258;51.288;12.068;2022-08-18T12:40:59;15.05;;;7.63;;
58470;SDS011;44258;51.288;12.068;2022-08-18T12:43:26;15.32;;;7.45;;
58470;SDS011;44258;51.288;12.068;2022-08-18T12:45:53;14.13;;;8.05;;
58470;SDS011;44258;51.288;12.068;2022-08-18T12:48:19;15.80;;;8.23;;
58470;SDS011;44258;51.288;12.068;2022-08-18T12:50:46;15.52;;;7.80;;
58470;SDS011;44258;51.288;12.068;2022-08-18T12:53:12;15.52;;;9.10;;
58470;SDS011;44258;51.288;12.068;2022-08-18T12:55:39;15.73;;;8.23;;
58470;SDS011;44258;51.288;12.068;2022-08-18T12:58:08;16.80;;;8.73;;
58470;SDS011;44258;51.288;12.068;2022-08-18T13:00:37;14.95;;;8.40;;
58470;SDS011;44258;51.288;12.068;2022-08-18T13:03:05;16.40;;;8.70;;
58470;SDS011;44258;51.288;12.068;2022-08-18T13:05:32;15.43;;;8.55;;
58470;SDS011;44258;51.288;12.068;2022-08-18T13:08:00;14.18;;;8.20;;
58470;SDS011;44258;51.288;12.068;2022-08-18T13:10:28;15.70;;;8.25;;
58470;SDS011;44258;51.288;12.068;2022-08-18T13:12:55;15.80;;;8.73;;
58470;SDS011;44258;51.288;12.068;2022-08-18T13:15:21;16.92;;;9.25;;
58470;SDS011;44258;51.288;12.068;2022-08-18T13:17:49;14.45;;;8.05;;
58470;SDS011;44258;51.288;12.068;2022-08-18T13:20:16;16.45;;;8.25;;
58470;SDS011;44258;51.288;12.068;2022-08-18T13:22:42;16.15;;;8.52;;
58470;SDS011;44258;51.288;12.068;2022-08-18T13:25:10;14.10;;;8.25;;
58470;SDS011;44258;51.288;12.068;2022-08-18T13:27:38;18.27;;;8.82;;
58470;SDS011;44258;51.288;12.068;2022-08-18T13:30:06;15.57;;;8.60;;
58470;SDS011;44258;51.288;12.068;2022-08-18T13:32:34;14.98;;;7.55;;
58470;SDS011;44258;51.288;12.068;2022-08-18T13:35:03;14.40;;;8.20;;
58470;SDS011;44258;51.288;12.068;2022-08-18T13:37:30;13.90;;;8.25;;
58470;SDS011;44258;51.288;12.068;2022-08-18T13:39:57;15.93;;;8.70;;
58470;SDS011;44258;51.288;12.068;2022-08-18T13:42:23;17.08;;;8.63;;
58470;SDS011;44258;51.288;12.068;2022-08-18T13:44:53;15.25;;;8.10;;
58470;SDS011;44258;51.288;12.068;2022-08-18T13:47:20;18.05;;;8.35;;
58470;SDS011;44258;51.288;12.068;2022-08-18T13:49:47;16.20;;;8.43;;
58470;SDS011;44258;51.288;12.068;2022-08-18T13:52:15;14.38;;;8.27;;
58470;SDS011;44258;51.288;12.068;2022-08-18T13:54:41;14.63;;;7.68;;
58470;SDS011;44258;51.288;12.068;2022-08-18T13:57:10;14.63;;;8.00;;
58470;SDS011;44258;51.288;12.068;2022-08-18T13:59:36;12.93;;;6.95;;
58470;SDS011;44258;51.288;12.068;2022-08-18T14:02:05;16.10;;;7.82;;
58470;SDS011;44258;51.288;12.068;2022-08-18T14:04:33;18.08;;;9.02;;
58470;SDS011;44258;51.288;12.068;2022-08-18T14:07:01;14.23;;;7.53;;
58470;SDS011;44258;51.288;12.068;2022-08-18T14:09:30;14.50;;;7.53;;
58470;SDS011;44258;51.288;12.068;2022-08-18T14:11:57;15.93;;;7.57;;
58470;SDS011;44258;51.288;12.068;2022-08-18T14:14:24;14.95;;;7.82;;
58470;SDS011;44258;51.288;12.068;2022-08-18T14:16:51;13.45;;;7.55;;
58470;SDS011;44258;51.288;12.068;2022-08-18T14:19:17;17.15;;;7.60;;
58470;SDS011;44258;51.288;12.068;2022-08-18T14:22:01;15.63;;;8.07;;
58470;SDS011;44258;51.288;12.068;2022-08-18T14:24:44;14.63;;;8.35;;
58470;SDS011;44258;51.288;12.068;2022-08-18T14:27:29;15.30;;;8.07;;
58470;SDS011;44258;51.288;12.068;2022-08-18T14:29:58;13.38;;;7.78;;
58470;SDS011;44258;51.288;12.068;2022-08-18T14:32:26;13.60;;;7.65;;
58470;SDS011;44258;51.288;12.068;2022-08-18T14:34:53;14.45;;;7.50;;
58470;SDS011;44258;51.288;12.068;2022-08-18T14:37:21;14.73;;;8.27;;
58470;SDS011;44258;51.288;12.068;2022-08-18T14:39:49;13.50;;;7.47;;
58470;SDS011;44258;51.288;12.068;2022-08-18T14:42:16;14.82;;;8.00;;
58470;SDS011;44258;51.288;12.068;2022-08-18T14:44:45;13.20;;;7.65;;
58470;SDS011;44258;51.288;12.068;2022-08-18T14:47:12;14.32;;;8.23;;
58470;SDS011;44258;51.288;12.068;2022-08-18T14:49:39;13.25;;;7.28;;
58470;SDS011;44258;51.288;12.068;2022-08-18T14:52:07;15.30;;;7.90;;
58470;SDS011;44258;51.288;12.068;2022-08-18T14:54:34;14.05;;;7.55;;
58470;SDS011;44258;51.288;12.068;2022-08-18T14:57:02;14.63;;;7.82;;
58470;SDS011;44258;51.288;12.068;2022-08-18T14:59:33;14.57;;;7.93;;
58470;SDS011;44258;51.288;12.068;2022-08-18T15:01:59;15.45;;;7.32;;
58470;SDS011;44258;51.288;12.068;2022-08-18T15:04:25;16.63;;;8.45;;
58470;SDS011;44258;51.288;12.068;2022-08-18T15:06:52;16.23;;;8.43;;
58470;SDS011;44258;51.288;12.068;2022-08-18T15:09:20;15.40;;;7.60;;